createdAt,value
2022-10-09T00:01:32.195Z,60.37
2022-10-09T00:16:34.096Z,61.62
2022-10-09T00:31:36.083Z,62.32
2022-10-09T00:46:56.046Z,62.30
2022-10-09T01:01:58.193Z,61.49
2022-10-09T01:17:14.140Z,61.51
2022-10-09T01:32:21.549Z,61.30
2022-10-09T01:47:24.022Z,62.30
2022-10-09T02:02:26.671Z,62.43
2022-10-09T02:17:35.142Z,62.62
2022-10-09T02:32:37.285Z,62.67
2022-10-09T02:47:39.118Z,62.11
2022-10-09T03:02:41.083Z,62.21
2022-10-09T03:17:42.950Z,62.49
2022-10-09T03:32:44.912Z,63.19
2022-10-09T03:47:46.688Z,62.80
2022-10-09T04:02:48.937Z,63.00
2022-10-09T04:17:50.940Z,62.97
2022-10-09T04:32:52.808Z,62.59
2022-10-09T04:47:54.613Z,61.52
2022-10-09T05:02:56.389Z,59.55
2022-10-09T05:17:58.173Z,57.33
2022-10-09T05:33:00.240Z,57.81
2022-10-09T05:48:02.048Z,54.31
2022-10-09T06:03:04.182Z,50.64
2022-10-09T06:18:06.125Z,48.90
2022-10-09T06:33:08.012Z,47.61
2022-10-09T06:48:09.826Z,49.46
2022-10-09T07:03:11.647Z,46.96
2022-10-09T07:18:13.508Z,42.76
2022-10-09T07:33:15.455Z,41.72
2022-10-09T07:48:17.222Z,41.65
2022-10-09T08:03:19.016Z,39.47
2022-10-09T08:18:20.825Z,38.46
2022-10-09T08:33:25.241Z,37.89
2022-10-09T08:48:30.443Z,36.58
2022-10-09T09:03:59.561Z,36.23
2022-10-09T09:19:07.273Z,37.86
2022-10-09T09:34:28.246Z,40.65
2022-10-09T09:49:30.197Z,42.01
2022-10-09T10:04:32.782Z,44.67
2022-10-09T10:19:35.649Z,45.45
2022-10-09T10:34:45.742Z,48.26
2022-10-09T10:49:47.610Z,49.38
2022-10-09T11:05:29.751Z,48.29
2022-10-09T11:21:04.350Z,47.88
2022-10-09T11:36:21.708Z,48.14
2022-10-09T11:51:47.948Z,48.64
2022-10-09T12:06:57.527Z,49.18
2022-10-09T12:22:17.480Z,52.17
2022-10-09T12:37:31.324Z,51.43
2022-10-09T12:52:33.494Z,52.08
2022-10-09T13:07:35.481Z,53.01
2022-10-09T13:22:37.359Z,54.43
2022-10-09T13:37:41.179Z,54.75
2022-10-09T13:52:42.944Z,58.46
2022-10-09T14:07:44.759Z,57.92
2022-10-09T14:22:46.841Z,58.50
2022-10-09T14:37:49.443Z,58.72
2022-10-09T14:52:51.605Z,58.97
2022-10-09T15:07:53.748Z,58.92
2022-10-09T15:22:55.528Z,59.98
2022-10-09T15:37:57.457Z,60.55
2022-10-09T15:53:00.026Z,59.49
2022-10-09T16:08:01.842Z,58.96
2022-10-09T16:23:04.618Z,60.72
2022-10-09T16:38:06.959Z,61.57
2022-10-09T16:53:09.198Z,62.04
2022-10-09T17:08:10.974Z,63.74
2022-10-09T17:23:12.795Z,65.25
2022-10-09T17:38:14.679Z,66.64
2022-10-09T17:53:16.505Z,67.29
2022-10-09T18:08:19.871Z,67.37
2022-10-09T18:23:22.805Z,68.08
2022-10-09T18:38:25.057Z,69.06
2022-10-09T18:53:27.158Z,68.82
2022-10-09T19:08:29.036Z,69.53
2022-10-09T19:23:30.899Z,70.78
2022-10-09T19:38:33.386Z,71.62
2022-10-09T19:53:35.859Z,71.51
2022-10-09T20:08:39.903Z,71.54
2022-10-09T20:23:43.283Z,72.23
2022-10-09T20:38:45.245Z,73.14
2022-10-09T20:53:51.295Z,73.38
2022-10-09T21:08:53.111Z,74.07
2022-10-09T21:23:56.682Z,74.14
2022-10-09T21:38:58.750Z,75.10
2022-10-09T21:54:00.663Z,74.99
2022-10-09T22:09:02.484Z,74.95
2022-10-09T22:24:04.311Z,74.25
2022-10-09T22:39:07.297Z,73.07
2022-10-09T22:54:10.617Z,72.71
2022-10-09T23:09:14.665Z,71.87
2022-10-09T23:24:17.993Z,71.91
2022-10-09T23:39:20.147Z,71.90
2022-10-09T23:54:22.044Z,71.72
